Time;durP1;ratioP1;P1;durP2;ratioP2;P2;SDS_P1;SDS_P2;PMS_P1;PMS_P2;Temp;Humidity;BMP_temperature;BMP_pressure;BME280_temperature;BME280_humidity;BME280_pressure;Samples;Min_cycle;Max_cycle;Signal;HPM_P1;HPM_P2
2022/04/20 00:00:40;;;;;;;11.63;6.63;;;;;;;10.02;60.06;100534.72;5054233;28;20510;-64
2022/04/20 00:03:06;;;;;;;10.95;6.82;;;;;;;10.00;60.24;100530.38;5054394;28;20048;-63
2022/04/20 00:05:33;;;;;;;11.95;7.32;;;;;;;9.98;59.80;100533.03;5054694;28;20041;-63
2022/04/20 00:08:05;;;;;;;10.73;6.70;;;;;;;9.91;60.19;100541.91;5070774;28;20055;-63
2022/04/20 00:10:31;;;;;;;14.43;7.03;;;;;;;9.96;60.17;100531.31;5054750;28;20044;-62
2022/04/20 00:12:57;;;;;;;11.70;6.93;;;;;;;9.97;60.32;100531.28;5049898;28;20040;-64
2022/04/20 00:15:23;;;;;;;12.32;7.13;;;;;;;9.89;60.61;100538.41;5049189;28;20029;-64
2022/04/20 00:17:49;;;;;;;13.73;7.95;;;;;;;9.78;60.50;100545.63;5053931;28;20037;-64
2022/04/20 00:20:14;;;;;;;13.75;7.63;;;;;;;9.80;60.50;100542.06;5055441;28;20132;-64
2022/04/20 00:22:40;;;;;;;14.75;7.57;;;;;;;9.74;60.66;100539.56;5054298;28;20044;-63
2022/04/20 00:25:06;;;;;;;12.32;7.38;;;;;;;9.78;60.37;100546.47;5053005;28;20064;-64
2022/04/20 00:27:38;;;;;;;14.52;7.32;;;;;;;9.81;60.46;100551.69;5054878;28;20033;-62
2022/04/20 00:30:05;;;;;;;12.10;7.35;;;;;;;9.88;60.56;100552.44;5063751;28;20045;-64
2022/04/20 00:32:31;;;;;;;12.15;6.90;;;;;;;9.86;60.66;100549.00;5051846;28;20400;-63
2022/04/20 00:34:57;;;;;;;14.70;7.57;;;;;;;9.89;60.43;100533.16;5055242;28;20112;-64
2022/04/20 00:37:23;;;;;;;13.43;6.80;;;;;;;9.96;60.28;100521.69;5055289;28;20466;-64
2022/04/20 00:39:48;;;;;;;10.95;6.70;;;;;;;9.97;60.19;100525.16;5053736;28;20068;-65
2022/04/20 00:42:14;;;;;;;11.98;7.43;;;;;;;9.97;60.02;100530.41;5055097;28;20036;-64
2022/04/20 00:44:43;;;;;;;10.43;6.70;;;;;;;10.00;59.97;100535.63;5055160;28;20095;-64
2022/04/20 00:47:13;;;;;;;11.43;6.43;;;;;;;9.96;59.97;100533.94;5053540;28;20091;-63
2022/04/20 00:49:38;;;;;;;10.85;6.07;;;;;;;9.95;60.26;100529.59;5054535;28;20028;-63
2022/04/20 00:52:06;;;;;;;14.07;7.10;;;;;;;9.91;60.19;100526.16;5051917;28;20025;-64
2022/04/20 00:54:31;;;;;;;11.77;6.97;;;;;;;9.87;60.53;100524.47;5053185;28;20461;-65
2022/04/20 00:56:57;;;;;;;11.45;6.95;;;;;;;9.95;60.44;100519.97;5050530;28;20090;-66
2022/04/20 00:59:25;;;;;;;11.52;6.68;;;;;;;9.93;60.72;100513.84;5052244;28;20037;-66
2022/04/20 01:01:51;;;;;;;12.27;6.38;;;;;;;9.97;60.43;100517.28;5055707;28;20086;-67
2022/04/20 01:04:16;;;;;;;11.43;6.03;;;;;;;10.01;60.37;100518.97;5055006;28;20474;-67
2022/04/20 01:06:42;;;;;;;11.32;6.03;;;;;;;10.05;60.40;100521.53;5036908;28;20447;-67
2022/04/20 01:09:08;;;;;;;11.32;6.50;;;;;;;10.03;60.46;100507.56;5054286;28;20037;-66
2022/04/20 01:11:34;;;;;;;9.63;5.85;;;;;;;10.02;60.60;100499.72;5064092;28;20111;-66
2022/04/20 01:14:00;;;;;;;10.13;5.43;;;;;;;10.00;60.61;100502.34;5055344;28;20116;-66
2022/04/20 01:16:26;;;;;;;11.88;6.32;;;;;;;10.03;60.56;100498.81;5054495;28;20472;-64
2022/04/20 01:18:53;;;;;;;11.25;5.93;;;;;;;10.01;60.66;100485.72;5052711;28;20110;-65
2022/04/20 01:21:18;;;;;;;9.32;5.75;;;;;;;9.98;60.73;100487.56;5055654;28;20122;-65
2022/04/20 01:23:44;;;;;;;10.07;5.80;;;;;;;9.94;60.60;100478.84;5055314;28;20472;-65
2022/04/20 01:26:10;;;;;;;9.60;5.90;;;;;;;9.85;61.07;100473.75;5052892;28;20119;-65
2022/04/20 01:28:38;;;;;;;11.40;5.82;;;;;;;9.81;61.17;100478.22;5054797;28;20091;-64
2022/04/20 01:31:05;;;;;;;10.45;5.38;;;;;;;9.84;61.33;100490.41;5052747;28;20047;-64
2022/04/20 01:33:31;;;;;;;10.35;4.90;;;;;;;9.78;61.83;100485.25;5051851;28;20064;-65
2022/04/20 01:35:56;;;;;;;8.68;4.47;;;;;;;9.67;62.37;100484.56;5054903;28;20073;-67
2022/04/20 01:38:22;;;;;;;10.05;4.93;;;;;;;9.55;62.91;100486.50;5051584;28;20040;-66
2022/04/20 01:40:47;;;;;;;10.38;4.78;;;;;;;9.40;63.74;100484.09;5058867;28;20485;-66
2022/04/20 01:43:12;;;;;;;10.90;4.85;;;;;;;9.36;64.03;100475.41;5060835;28;20487;-65
2022/04/20 01:45:38;;;;;;;9.73;4.30;;;;;;;9.40;63.70;100478.84;5053385;28;20045;-64
2022/04/20 01:48:04;;;;;;;8.75;3.80;;;;;;;9.40;63.86;100471.00;5054569;28;20036;-65
2022/04/20 01:50:30;;;;;;;8.73;4.18;;;;;;;9.36;63.97;100478.03;5053581;28;20037;-64
2022/04/20 01:52:55;;;;;;;7.47;3.70;;;;;;;9.43;63.79;100480.56;5052714;28;20029;-64
2022/04/20 01:55:21;;;;;;;10.00;4.20;;;;;;;9.42;63.62;100482.34;5054082;28;20044;-65
2022/04/20 01:57:46;;;;;;;5.57;3.35;;;;;;;9.46;63.59;100483.16;5053239;28;20070;-63
2022/04/20 02:00:12;;;;;;;6.70;3.53;;;;;;;9.54;63.27;100479.53;5036168;28;20033;-64
2022/04/20 02:02:38;;;;;;;6.75;2.95;;;;;;;9.63;63.39;100487.22;5053489;28;20041;-65
2022/04/20 02:05:07;;;;;;;6.40;3.20;;;;;;;9.68;63.39;100475.78;5052891;28;20051;-64
2022/04/20 02:07:33;;;;;;;6.53;3.25;;;;;;;9.77;63.25;100459.88;5051518;28;20067;-64
2022/04/20 02:09:59;;;;;;;6.45;3.42;;;;;;;9.83;62.83;100454.56;5054153;28;20068;-64
2022/04/20 02:12:24;;;;;;;8.20;3.10;;;;;;;9.85;63.07;100452.75;5053037;28;20029;-64
2022/04/20 02:14:50;;;;;;;7.10;2.97;;;;;;;9.91;62.74;100452.66;5054198;28;20036;-64
2022/04/20 02:17:15;;;;;;;6.00;3.10;;;;;;;9.99;62.47;100450.75;5053002;28;20475;-65
2022/04/20 02:19:41;;;;;;;4.72;2.97;;;;;;;9.97;63.01;100449.03;5054005;28;20057;-65
2022/04/20 02:22:06;;;;;;;5.55;3.00;;;;;;;9.95;63.03;100454.34;5053796;28;20063;-65
2022/04/20 02:24:32;;;;;;;4.50;2.65;;;;;;;10.02;62.76;100460.34;5050098;28;20037;-65
2022/04/20 02:26:57;;;;;;;9.35;3.10;;;;;;;10.09;62.54;100459.31;5052610;28;20119;-65
2022/04/20 02:29:22;;;;;;;6.80;3.00;;;;;;;10.16;62.46;100449.59;5052716;28;20041;-64
2022/04/20 02:31:48;;;;;;;7.22;3.83;;;;;;;10.07;62.83;100459.38;5069116;28;20476;-65
2022/04/20 02:34:14;;;;;;;5.82;3.20;;;;;;;10.01;63.23;100459.47;5053653;28;20033;-66
2022/04/20 02:36:39;;;;;;;8.60;3.40;;;;;;;9.99;62.97;100450.75;5052780;28;20119;-65
2022/04/20 02:39:05;;;;;;;5.72;2.90;;;;;;;10.05;63.21;100442.78;5053771;28;20029;-65
2022/04/20 02:41:33;;;;;;;5.45;3.47;;;;;;;10.04;63.40;100438.41;5053743;28;20048;-65
2022/04/20 02:43:59;;;;;;;7.63;3.17;;;;;;;10.05;63.61;100419.16;5052351;28;20047;-63
2022/04/20 02:46:25;;;;;;;5.57;2.80;;;;;;;10.10;63.72;100421.69;5053288;28;20392;-66
2022/04/20 02:48:51;;;;;;;7.00;3.08;;;;;;;10.09;63.69;100419.94;5052173;28;20048;-66
2022/04/20 02:51:16;;;;;;;5.05;2.97;;;;;;;10.03;63.88;100426.19;5053807;28;20033;-66
2022/04/20 02:53:42;;;;;;;5.63;2.95;;;;;;;10.00;64.13;100431.47;5051672;28;20037;-66
2022/04/20 02:56:07;;;;;;;6.80;2.63;;;;;;;9.96;64.31;100435.06;5048722;28;20045;-66
2022/04/20 02:58:33;;;;;;;4.40;2.28;;;;;;;9.97;64.43;100425.41;5053420;28;20036;-66
2022/04/20 03:00:58;;;;;;;5.82;2.72;;;;;;;9.94;64.75;100430.75;5052608;28;20461;-65
2022/04/20 03:03:24;;;;;;;4.97;2.80;;;;;;;9.85;65.22;100427.41;5053967;28;20399;-64
2022/04/20 03:05:51;;;;;;;4.32;2.80;;;;;;;9.86;65.37;100426.50;5053413;28;20039;-65
2022/04/20 03:08:17;;;;;;;6.28;2.85;;;;;;;9.84;65.55;100422.16;5052416;28;20037;-64
2022/04/20 03:10:43;;;;;;;5.82;2.75;;;;;;;9.92;65.42;100422.88;5052293;28;20459;-63
2022/04/20 03:13:08;;;;;;;4.65;2.50;;;;;;;10.00;65.36;100420.13;5052247;28;20037;-62
2022/04/20 03:15:34;;;;;;;4.75;2.55;;;;;;;10.07;65.35;100422.59;5052947;28;20029;-62
2022/04/20 03:17:59;;;;;;;4.68;2.78;;;;;;;10.06;65.29;100420.03;5053126;28;20036;-63
2022/04/20 03:20:25;;;;;;;4.68;2.80;;;;;;;10.02;65.34;100424.47;5052217;28;20060;-63
2022/04/20 03:22:50;;;;;;;3.35;2.40;;;;;;;9.97;65.38;100428.91;5054492;28;20029;-62
2022/04/20 03:25:16;;;;;;;5.43;2.75;;;;;;;9.93;65.76;100435.09;5071592;28;20032;-63
2022/04/20 03:27:41;;;;;;;4.70;2.40;;;;;;;10.02;65.63;100429.72;5055588;28;20396;-64
2022/04/20 03:30:07;;;;;;;4.70;2.85;;;;;;;10.14;65.55;100425.13;5056941;28;20029;-62
2022/04/20 03:32:34;;;;;;;7.75;3.03;;;;;;;10.18;65.44;100417.16;5055687;28;20036;-63
2022/04/20 03:35:01;;;;;;;5.25;3.15;;;;;;;10.11;65.79;100412.91;5058365;28;20041;-64
2022/04/20 03:37:26;;;;;;;4.40;2.80;;;;;;;9.95;66.10;100425.47;5065331;28;20060;-64
2022/04/20 03:39:52;;;;;;;4.90;2.60;;;;;;;9.89;66.23;100425.56;5055884;28;20465;-64
2022/04/20 03:42:18;;;;;;;7.47;3.15;;;;;;;9.82;66.78;100423.97;5056284;28;20113;-64
2022/04/20 03:44:43;;;;;;;4.65;2.78;;;;;;;9.76;66.86;100421.44;5055667;28;20041;-64
2022/04/20 03:47:09;;;;;;;6.07;3.10;;;;;;;9.61;67.72;100423.44;5056974;28;20040;-64
2022/04/20 03:49:34;;;;;;;4.18;2.47;;;;;;;9.69;67.27;100432.91;5054909;28;20503;-64
2022/04/20 03:52:01;;;;;;;6.85;3.08;;;;;;;9.77;67.12;100439.75;5057110;28;20579;-64
2022/04/20 03:54:27;;;;;;;5.70;2.85;;;;;;;9.74;67.46;100431.97;5054751;28;20056;-63
2022/04/20 03:57:04;;;;;;;5.00;2.70;;;;;;;9.84;67.25;100440.53;5055703;28;20480;-63
2022/04/20 03:59:35;;;;;;;6.50;3.95;;;;;;;9.80;67.50;100436.22;5036615;28;20037;-63
2022/04/20 04:02:00;;;;;;;7.03;3.88;;;;;;;9.78;67.58;100432.78;5050580;28;20029;-63
2022/04/20 04:04:26;;;;;;;8.02;4.38;;;;;;;9.67;67.94;100429.47;5055787;28;20479;-63
2022/04/20 04:06:51;;;;;;;6.00;3.85;;;;;;;9.73;67.65;100437.22;5054539;28;20038;-62
2022/04/20 04:09:17;;;;;;;4.63;3.10;;;;;;;9.78;67.58;100431.03;5051255;28;20037;-63
2022/04/20 04:11:42;;;;;;;7.40;3.97;;;;;;;9.77;68.00;100436.28;5054484;28;20040;-63
2022/04/20 04:14:08;;;;;;;17.00;8.32;;;;;;;9.86;67.97;100441.38;5052988;28;20048;-62
2022/04/20 04:16:36;;;;;;;22.40;11.85;;;;;;;9.93;67.55;100450.84;5050174;28;20029;-64
2022/04/20 04:19:07;;;;;;;22.05;12.70;;;;;;;9.94;68.00;100447.38;5054794;28;20095;-64
2022/04/20 04:21:37;;;;;;;10.25;6.63;;;;;;;9.95;67.44;100438.59;5052619;28;21405;-64
2022/04/20 04:24:08;;;;;;;11.70;7.75;;;;;;;9.87;67.71;100448.34;5051727;28;20041;-62
2022/04/20 04:26:34;;;;;;;10.15;6.60;;;;;;;9.95;67.50;100440.34;5052427;28;20044;-61
2022/04/20 04:28:59;;;;;;;12.18;7.82;;;;;;;9.95;67.80;100451.72;5051910;28;20044;-62
2022/04/20 04:31:25;;;;;;;26.90;14.65;;;;;;;10.01;67.24;100427.97;5054386;28;20392;-62
2022/04/20 04:33:50;;;;;;;23.65;12.43;;;;;;;9.97;67.43;100426.28;5054703;28;20078;-63
2022/04/20 04:36:16;;;;;;;11.52;5.85;;;;;;;9.91;68.05;100430.81;5056901;28;20057;-62
2022/04/20 04:38:41;;;;;;;8.45;4.65;;;;;;;9.92;67.67;100422.88;5053313;28;20075;-62
2022/04/20 04:41:07;;;;;;;9.45;4.55;;;;;;;10.03;67.09;100410.44;5053561;28;20458;-63
2022/04/20 04:43:32;;;;;;;14.80;4.93;;;;;;;10.13;66.59;100416.38;5054853;28;20098;-63
2022/04/20 04:48:42;;;;;;;8.55;4.05;;;;;;;10.11;66.16;100426.03;5054585;28;20090;-64
2022/04/20 04:51:09;;;;;;;7.03;4.68;;;;;;;10.18;65.85;100418.94;5053751;28;20036;-62
2022/04/20 04:53:35;;;;;;;7.85;4.35;;;;;;;10.23;65.72;100420.56;5055570;28;20067;-62
2022/04/20 04:56:01;;;;;;;9.75;4.97;;;;;;;10.28;65.42;100421.34;5054703;28;20029;-63
2022/04/20 04:58:27;;;;;;;8.93;5.38;;;;;;;10.30;65.21;100414.31;5055410;28;20025;-63
2022/04/20 05:00:53;;;;;;;9.77;5.95;;;;;;;10.31;65.15;100407.31;5054615;28;20466;-64
2022/04/20 05:03:19;;;;;;;14.98;7.28;;;;;;;10.35;64.88;100406.34;5051328;28;20029;-63
2022/04/20 05:05:44;;;;;;;21.05;9.18;;;;;;;10.34;64.69;100399.38;5054828;28;20040;-64
2022/04/20 05:08:10;;;;;;;16.27;8.00;;;;;;;10.39;64.33;100407.16;5052976;28;20065;-64
2022/04/20 05:10:36;;;;;;;16.23;7.55;;;;;;;10.43;63.92;100388.66;5055362;28;20041;-64
2022/04/20 05:13:06;;;;;;;12.02;6.90;;;;;;;10.41;63.96;100390.44;5055281;28;20029;-63
2022/04/20 05:15:32;;;;;;;11.63;7.20;;;;;;;10.48;63.66;100380.69;5054179;28;20025;-64
2022/04/20 05:17:57;;;;;;;11.85;6.43;;;;;;;10.31;64.27;100381.91;5055206;28;20075;-63
2022/04/20 05:20:23;;;;;;;10.00;5.68;;;;;;;10.30;64.04;100376.69;5052710;28;20389;-63
2022/04/20 05:22:49;;;;;;;10.73;5.85;;;;;;;10.25;64.10;100382.03;5056051;28;20029;-62
2022/04/20 05:25:14;;;;;;;11.52;6.32;;;;;;;10.16;64.31;100391.81;5052524;28;20029;-64
2022/04/20 05:27:40;;;;;;;6.18;4.45;;;;;;;10.15;64.50;100382.22;5052678;28;20455;-63
2022/04/20 05:30:07;;;;;;;7.30;3.90;;;;;;;10.19;64.43;100379.50;5054059;28;20453;-62
2022/04/20 05:32:33;;;;;;;9.43;4.43;;;;;;;10.21;64.46;100375.06;5049343;28;20034;-63
2022/04/20 05:34:59;;;;;;;10.02;5.07;;;;;;;10.08;64.79;100363.09;5048406;28;20076;-64
2022/04/20 05:42:53;;;;;;;8.07;5.25;;;;;;;10.05;64.98;100342.13;5047718;28;20227;-63
2022/04/20 05:45:18;;;;;;;11.02;5.55;;;;;;;9.80;65.94;100341.75;5050730;28;20054;-64
2022/04/20 05:47:44;;;;;;;9.55;5.05;;;;;;;10.02;65.16;100321.22;5048858;28;20029;-64
2022/04/20 05:50:09;;;;;;;7.60;3.90;;;;;;;9.91;65.61;100334.56;5050511;28;20082;-65
2022/04/20 05:52:35;;;;;;;8.13;4.18;;;;;;;10.06;65.19;100343.88;5055388;28;20033;-64
2022/04/20 05:55:00;;;;;;;13.02;5.30;;;;;;;10.02;65.72;100345.72;5051991;28;20080;-63
2022/04/20 05:57:26;;;;;;;7.78;4.28;;;;;;;10.08;65.41;100340.31;5052859;28;20527;-65
2022/04/20 05:59:52;;;;;;;11.75;5.78;;;;;;;10.22;65.15;100333.94;5052610;28;20033;-64
2022/04/20 06:02:17;;;;;;;15.13;7.97;;;;;;;10.33;64.45;100332.84;5053474;28;20037;-63
2022/04/20 06:04:43;;;;;;;13.40;5.13;;;;;;;10.26;64.85;100322.50;5050605;28;20048;-64
2022/04/20 06:07:08;;;;;;;13.02;4.53;;;;;;;10.28;64.30;100312.81;5050159;28;20408;-64
2022/04/20 06:09:34;;;;;;;10.90;4.45;;;;;;;10.41;63.88;100316.03;5054103;28;20392;-64
2022/04/20 06:11:59;;;;;;;8.73;2.97;;;;;;;10.41;63.65;100311.66;5051540;28;20055;-63
2022/04/20 06:14:24;;;;;;;7.78;3.63;;;;;;;10.60;62.64;100312.09;5051685;28;20376;-64
2022/04/20 06:16:50;;;;;;;7.60;3.50;;;;;;;10.59;62.31;100294.63;5049871;28;20039;-62
2022/04/20 06:19:16;;;;;;;6.72;3.20;;;;;;;10.55;62.42;100306.97;5040574;28;20098;-65
2022/04/20 06:21:42;;;;;;;5.97;3.22;;;;;;;10.55;61.96;100309.59;5049431;28;21803;-64
2022/04/20 06:24:07;;;;;;;6.22;2.92;;;;;;;10.54;62.02;100293.88;5052975;28;20076;-64
2022/04/20 06:26:33;;;;;;;6.30;2.90;;;;;;;10.70;61.67;100302.28;5059340;28;20132;-64
2022/04/20 06:28:58;;;;;;;5.70;3.10;;;;;;;10.68;61.92;100304.06;5055735;28;20064;-65
2022/04/20 06:31:23;;;;;;;6.00;2.70;;;;;;;10.76;61.91;100307.34;5052431;28;20526;-64
2022/04/20 06:33:49;;;;;;;6.80;2.92;;;;;;;10.93;61.37;100299.97;5053610;28;20045;-63
2022/04/20 06:36:14;;;;;;;9.55;3.00;;;;;;;10.95;61.34;100295.50;5053780;28;20037;-64
2022/04/20 06:38:40;;;;;;;5.22;2.90;;;;;;;11.14;61.20;100289.81;5053876;28;20071;-64
2022/04/20 06:41:05;;;;;;;6.72;3.13;;;;;;;11.15;61.00;100288.91;5049042;28;20132;-65
2022/04/20 06:43:32;;;;;;;6.70;3.03;;;;;;;11.19;60.98;100277.41;5050660;28;20040;-65
2022/04/20 06:45:57;;;;;;;6.50;3.20;;;;;;;11.26;60.79;100271.09;5050657;28;20040;-65
2022/04/20 06:48:23;;;;;;;7.32;3.40;;;;;;;11.40;60.67;100273.34;5053125;28;20033;-65
2022/04/20 06:50:50;;;;;;;5.45;3.10;;;;;;;11.32;60.53;100274.38;5052916;28;20174;-65
2022/04/20 06:58:44;;;;;;;6.78;2.75;;;;;;;11.69;59.27;100262.00;5052306;28;20047;-66
2022/04/20 07:01:10;;;;;;;5.78;3.10;;;;;;;11.73;58.76;100256.63;5052024;28;20443;-64
2022/04/20 07:03:36;;;;;;;4.20;2.50;;;;;;;11.88;58.43;100250.06;5051454;28;20542;-65
2022/04/20 07:06:03;;;;;;;5.68;3.33;;;;;;;11.70;57.58;100242.69;5052251;28;20029;-66
2022/04/20 07:08:30;;;;;;;6.13;2.83;;;;;;;11.78;57.58;100240.72;5051762;28;20033;-66
2022/04/20 07:10:56;;;;;;;7.15;3.10;;;;;;;12.08;57.51;100226.66;5053046;28;20032;-66
2022/04/20 07:13:22;;;;;;;4.72;2.72;;;;;;;12.46;56.28;100237.78;5052224;28;20042;-66
2022/04/20 07:15:48;;;;;;;7.30;3.17;;;;;;;12.38;56.14;100229.25;5052270;28;20064;-65
2022/04/20 07:18:14;;;;;;;6.45;2.95;;;;;;;12.64;55.80;100223.16;5050913;28;20083;-66
2022/04/20 07:20:40;;;;;;;4.75;2.90;;;;;;;12.44;54.35;100254.53;5058609;28;20082;-66
2022/04/20 07:23:06;;;;;;;5.65;2.65;;;;;;;12.65;55.00;100224.88;5055672;28;20044;-66
2022/04/20 07:25:32;;;;;;;6.03;2.67;;;;;;;12.55;54.39;100234.84;5052710;28;20040;-65
2022/04/20 07:27:58;;;;;;;4.00;2.45;;;;;;;12.66;54.23;100226.59;5052912;28;20033;-66
2022/04/20 07:30:23;;;;;;;5.72;2.33;;;;;;;12.72;53.99;100246.63;5069208;28;20640;-66
2022/04/20 07:32:49;;;;;;;7.82;2.70;;;;;;;12.63;53.50;100220.56;5060358;28;20084;-66
2022/04/20 07:35:15;;;;;;;5.63;2.55;;;;;;;12.62;53.23;100221.50;5059673;28;20410;-66
2022/04/20 07:37:40;;;;;;;5.72;2.42;;;;;;;12.69;53.43;100237.06;5052261;28;20033;-66
2022/04/20 07:40:06;;;;;;;8.52;2.85;;;;;;;12.94;53.58;100218.63;5052760;28;20120;-66
2022/04/20 07:42:32;;;;;;;4.18;2.40;;;;;;;12.63;53.19;100218.78;5053039;28;20122;-66
2022/04/20 07:44:59;;;;;;;6.10;2.90;;;;;;;12.64;53.21;100232.81;5051325;28;20056;-66
2022/04/20 07:47:25;;;;;;;5.75;2.40;;;;;;;12.79;53.03;100230.56;5052091;28;20392;-66
2022/04/20 07:52:41;;;;;;;5.65;2.70;;;;;;;12.86;53.12;100220.69;5052322;28;20403;-66
2022/04/20 07:55:11;;;;;;;7.80;2.78;;;;;;;12.84;53.04;100243.59;5051478;28;20037;-66
2022/04/20 07:57:37;;;;;;;6.05;2.30;;;;;;;12.72;52.85;100238.72;5051262;28;20029;-66
2022/04/20 08:00:06;;;;;;;6.25;2.35;;;;;;;12.85;52.33;100240.06;5051565;28;20033;-67
2022/04/20 08:02:32;;;;;;;7.50;2.92;;;;;;;12.64;52.33;100240.75;5051248;28;20052;-65
2022/04/20 08:04:57;;;;;;;6.00;2.92;;;;;;;12.20;53.41;100261.44;5051129;28;20530;-66
2022/04/20 08:07:23;;;;;;;15.18;3.83;;;;;;;12.19;53.84;100246.53;5052566;28;20468;-65
2022/04/20 08:09:49;;;;;;;5.55;2.70;;;;;;;12.27;54.04;100234.84;5059879;28;20095;-65
2022/04/20 08:12:14;;;;;;;5.60;2.85;;;;;;;12.34;53.44;100227.63;5063447;28;20108;-66
2022/04/20 08:14:40;;;;;;;8.25;2.88;;;;;;;12.39;53.44;100235.41;5055902;28;20039;-67
2022/04/20 08:17:05;;;;;;;4.82;2.65;;;;;;;12.32;53.00;100245.25;5055000;28;20033;-66
2022/04/20 08:19:30;;;;;;;6.25;3.00;;;;;;;12.14;53.36;100243.19;5055268;28;20045;-66
2022/04/20 08:21:56;;;;;;;7.43;2.72;;;;;;;12.10;53.33;100238.94;5055620;28;20091;-66
2022/04/20 08:24:22;;;;;;;5.97;2.78;;;;;;;11.94;53.38;100255.19;5056112;28;20041;-66
2022/04/20 08:26:47;;;;;;;13.13;2.60;;;;;;;11.90;53.56;100245.66;5056032;28;20033;-66
2022/04/20 08:29:13;;;;;;;7.47;2.90;;;;;;;11.92;53.72;100230.66;5055754;28;20427;-65
2022/04/20 08:31:38;;;;;;;9.13;2.83;;;;;;;11.81;53.65;100233.59;5054384;28;20029;-65
2022/04/20 08:34:04;;;;;;;7.35;3.03;;;;;;;11.90;53.90;100243.00;5055745;28;20039;-65
2022/04/20 08:36:30;;;;;;;6.75;2.55;;;;;;;12.11;53.53;100230.97;5055666;28;20401;-64
2022/04/20 08:38:55;;;;;;;7.35;2.83;;;;;;;12.05;53.48;100232.03;5056206;28;20120;-65
2022/04/20 08:41:22;;;;;;;6.70;3.13;;;;;;;12.16;52.78;100223.78;5056065;28;20037;-65
2022/04/20 08:43:47;;;;;;;9.50;2.50;;;;;;;12.03;52.92;100228.56;5055534;28;20040;-64
2022/04/20 08:46:16;;;;;;;6.63;2.78;;;;;;;12.01;53.31;100224.28;5055785;28;20125;-65
2022/04/20 08:48:42;;;;;;;5.47;2.60;;;;;;;12.07;53.39;100224.94;5055535;28;20102;-65
2022/04/20 08:51:07;;;;;;;6.43;2.75;;;;;;;11.96;53.92;100216.47;5055388;28;20396;-66
2022/04/20 08:53:33;;;;;;;5.45;2.63;;;;;;;11.99;53.82;100215.53;5054829;28;20383;-64
2022/04/20 08:58:50;;;;;;;5.82;2.60;;;;;;;12.26;53.43;100203.31;5055455;28;20123;-65
2022/04/20 09:01:17;;;;;;;7.32;2.67;;;;;;;12.35;53.33;100215.31;5055202;28;20036;-65
2022/04/20 09:03:46;;;;;;;7.78;2.63;;;;;;;12.53;52.96;100204.22;5055012;28;20045;-65
2022/04/20 09:06:15;;;;;;;5.93;2.80;;;;;;;12.36;53.15;100207.34;5054954;28;20385;-65
2022/04/20 09:08:44;;;;;;;6.97;2.60;;;;;;;12.53;52.73;100191.03;5055245;28;20496;-65
2022/04/20 09:11:10;;;;;;;7.93;2.88;;;;;;;12.57;52.89;100185.59;5055056;28;20033;-65
2022/04/20 09:13:41;;;;;;;10.27;3.05;;;;;;;12.43;52.83;100206.25;5054704;28;20504;-65
2022/04/20 09:16:10;;;;;;;9.55;2.83;;;;;;;12.77;52.46;100187.56;5054662;28;20037;-64
2022/04/20 09:18:36;;;;;;;6.85;3.25;;;;;;;12.81;52.50;100183.06;5053438;28;20059;-65
2022/04/20 09:21:09;;;;;;;6.15;2.72;;;;;;;13.07;52.29;100188.28;5054312;28;20040;-65
2022/04/20 09:23:35;;;;;;;5.68;2.83;;;;;;;13.01;52.11;100188.50;5054798;28;20052;-65
2022/04/20 09:26:17;;;;;;;5.40;2.58;;;;;;;12.81;52.17;100188.34;5054790;28;20033;-65
2022/04/20 09:29:04;;;;;;;5.18;2.92;;;;;;;12.94;52.49;100189.63;5054773;28;20041;-65
2022/04/20 09:31:50;;;;;;;9.20;3.00;;;;;;;12.67;52.42;100194.06;5054685;28;20119;-64
2022/04/20 09:34:24;;;;;;;7.38;2.90;;;;;;;12.82;52.44;100204.09;5054707;28;20065;-65
2022/04/20 09:36:51;;;;;;;7.65;3.35;;;;;;;12.97;52.51;100180.75;5054642;28;20041;-65
2022/04/20 09:39:16;;;;;;;9.73;3.15;;;;;;;13.29;52.19;100198.13;5054517;28;20041;-65
2022/04/20 09:41:59;;;;;;;6.90;2.95;;;;;;;13.43;51.72;100182.66;5054528;28;20044;-64
2022/04/20 09:44:25;;;;;;;5.63;3.47;;;;;;;13.58;51.15;100188.28;5054721;28;20037;-64
2022/04/20 09:50:03;;;;;;;6.00;2.53;;;;;;;13.29;50.44;100225.38;5054182;28;20094;-65
2022/04/20 09:52:42;;;;;;;5.47;2.50;;;;;;;13.31;50.60;100199.78;5054348;28;20060;-64
2022/04/20 09:55:12;;;;;;;5.25;2.92;;;;;;;13.19;51.18;100197.53;5054220;28;20037;-64
2022/04/20 09:57:38;;;;;;;9.50;3.70;;;;;;;13.07;51.44;100204.09;5053670;28;20068;-65
2022/04/20 10:00:11;;;;;;;11.57;3.30;;;;;;;12.99;51.39;100205.28;5054498;28;20181;-66
2022/04/20 10:02:44;;;;;;;;;;;;;;;12.92;52.02;100201.13;5054759;28;20116;-66
2022/04/20 10:05:09;;;;;;;6.38;2.92;;;;;;;13.24;51.63;100202.69;5054405;28;19909;-65
2022/04/20 10:07:35;;;;;;;7.30;2.60;;;;;;;13.73;50.56;100208.84;5053898;28;20479;-65
2022/04/20 10:10:01;;;;;;;7.13;2.85;;;;;;;13.86;50.08;100215.38;5053296;28;20476;-64
2022/04/20 10:12:29;;;;;;;10.98;3.00;;;;;;;13.79;49.56;100203.31;5052948;28;20040;-65
2022/04/20 10:17:47;;;;;;;9.30;2.80;;;;;;;14.51;48.91;100201.38;5053815;28;20549;-64
2022/04/20 10:20:13;;;;;;;5.75;2.75;;;;;;;14.59;48.21;100213.44;5053134;28;20080;-65
2022/04/20 10:22:40;;;;;;;5.90;2.65;;;;;;;14.37;48.05;100227.50;5053740;28;20044;-66
2022/04/20 10:25:07;;;;;;;4.88;2.70;;;;;;;13.96;48.82;100203.56;5053777;28;20124;-64
2022/04/20 10:27:43;;;;;;;7.20;3.00;;;;;;;13.60;49.16;100234.81;5053741;28;20465;-64
2022/04/20 10:30:19;;;;;;;13.40;3.30;;;;;;;13.10;50.17;100218.97;5053624;28;20057;-64
2022/04/20 10:32:59;;;;;;;5.85;2.95;;;;;;;12.93;50.68;100227.47;5051665;28;20078;-63
2022/04/20 10:35:25;;;;;;;5.93;2.63;;;;;;;13.06;50.86;100225.28;5053547;28;20039;-63
2022/04/20 10:38:07;;;;;;;4.40;2.92;;;;;;;13.17;50.78;100228.41;5052326;28;20473;-66
2022/04/20 10:40:33;;;;;;;7.10;2.92;;;;;;;13.09;50.71;100233.09;5033582;28;20057;-66
2022/04/20 10:43:21;;;;;;;5.20;2.55;;;;;;;13.00;50.90;100228.97;5044848;28;20128;-63
2022/04/20 10:46:14;;;;;;;6.85;2.80;;;;;;;12.98;50.75;100232.59;5050764;28;20037;-66
2022/04/20 10:48:45;;;;;;;8.93;3.10;;;;;;;12.80;50.89;100252.50;5039195;28;20477;-65
2022/04/20 10:51:19;;;;;;;4.93;3.05;;;;;;;12.63;51.23;100228.47;5052510;28;20033;-65
2022/04/20 10:53:48;;;;;;;7.80;3.20;;;;;;;12.63;51.68;100223.22;5053148;28;20047;-65
2022/04/20 10:56:18;;;;;;;6.57;2.63;;;;;;;12.67;51.86;100230.97;5052156;28;20159;-65
2022/04/20 10:59:07;;;;;;;6.80;3.63;;;;;;;12.57;51.98;100246.22;5053605;28;20102;-64
2022/04/20 11:02:13;;;;;;;7.13;3.78;;;;;;;12.69;52.29;100241.47;5053270;28;20370;-65
2022/04/20 11:04:41;;;;;;;6.20;2.85;;;;;;;12.80;52.02;100236.69;5052423;28;20043;-64
2022/04/20 11:07:07;;;;;;;4.47;2.50;;;;;;;12.85;51.74;100231.25;5053300;28;20068;-65
2022/04/20 11:10:02;;;;;;;9.02;3.85;;;;;;;12.47;51.86;100247.41;5052986;28;20444;-63
2022/04/20 11:21:06;;;;;;;6.60;3.30;;;;;;;12.50;52.19;100220.97;5052784;28;20060;-64
2022/04/20 11:23:59;;;;;;;8.70;3.10;;;;;;;12.21;52.19;100213.13;5053002;28;20035;-65
2022/04/20 11:26:28;;;;;;;;;;;;;;;12.25;52.55;100207.72;5053458;28;20083;-64
2022/04/20 11:28:59;;;;;;;10.77;3.60;;;;;;;12.14;52.63;100219.50;5052831;28;19951;-65
2022/04/20 11:31:25;;;;;;;6.72;3.00;;;;;;;12.13;52.57;100209.84;5051483;28;20033;-64
2022/04/20 11:33:53;;;;;;;6.78;3.13;;;;;;;12.13;52.56;100213.38;5051544;28;20040;-65
2022/04/20 11:36:19;;;;;;;9.98;3.05;;;;;;;12.21;52.45;100223.66;5052741;28;20490;-65
2022/04/20 11:38:51;;;;;;;9.55;3.47;;;;;;;12.07;52.42;100224.06;5052954;28;20541;-65
2022/04/20 11:41:17;;;;;;;7.05;2.95;;;;;;;11.94;52.64;100231.47;5054609;28;20065;-65
2022/04/20 11:43:42;;;;;;;7.30;3.40;;;;;;;12.15;52.73;100206.25;5063311;28;20495;-65
2022/04/20 11:46:08;;;;;;;7.43;3.58;;;;;;;12.22;52.54;100205.16;5057549;28;20117;-65
2022/04/20 11:48:38;;;;;;;7.75;3.00;;;;;;;12.13;53.09;100217.75;5054963;28;20036;-64
2022/04/20 11:51:08;;;;;;;11.45;3.78;;;;;;;12.06;53.14;100212.69;5054072;28;20554;-63
2022/04/20 11:53:36;;;;;;;9.48;4.10;;;;;;;12.07;53.43;100203.88;5052647;28;20135;-64
2022/04/20 11:56:04;;;;;;;9.88;4.07;;;;;;;12.00;56.28;100207.59;5068279;28;20041;-64
2022/04/20 11:58:32;;;;;;;10.18;4.25;;;;;;;11.58;59.05;100207.06;5053844;28;20029;-64
2022/04/20 12:01:03;;;;;;;9.27;4.88;;;;;;;11.41;62.24;100209.28;5049360;28;20067;-64